• Join FlightAware (Why Join?)
  • Login
  • US Flag 
05:49PM EDT


 

Airport Tracker/Info


-or-


 

Live Flight TrackerFlight Track Log ✈ N767NC ✈ 15-May-2012 ✈ KATL - KCAE

Flight Track Log - Related Links

Times and Time Zones

All times are in EDT time to prevent confusion due to time zone crossing. See the N767NC flight status page for this flight to view local times or setup timezone preferences in your user account.

Time Position Orientation Groundspeed Altitude Reporting Facility
EDT Latitude Longitude Course Direction KTS MPH feet Rate Location/Type
01:03PM 33.6350 -84.4631 150° Southeast 403 464 2,500  Level Atlanta Center
01:08PM 33.4619 -84.3450 77° East 310 357 14,200 2,160 Climbing Atlanta Center
01:09PM 33.4872 -84.2106 75° East 371 427 15,600 1,860 Climbing Atlanta Center
01:10PM 33.5186 -84.0661 71° East 423 487 18,000 2,700 Climbing Atlanta Center
01:11PM 33.5583 -83.9292 71° East 437 503 21,000 2,400 Climbing Atlanta Center
01:12PM 33.5958 -83.7944 79° East 431 496 22,800 960 Climbing Atlanta Center
01:13PM 33.6203 -83.6422 86° East 438 504 23,000 60 Climbing Atlanta Center
01:14PM 33.6303 -83.4775 82° East 479 551 23,000  Level Atlanta Center
01:15PM 33.6503 -83.3100 82° East 498 573 23,000  Level Atlanta Center
01:16PM 33.6700 -83.1503 82° East 496 571 23,000  Level Atlanta Center
01:17PM 33.6894 -82.9903 85° East 490 564 23,000  Level Atlanta Center
01:18PM 33.7008 -82.8428 80° East 485 558 23,000  Level Atlanta Center
01:19PM 33.7242 -82.6825 83° East 485 558 23,000 -60 Level Atlanta Center
01:20PM 33.7411 -82.5225 80° East 485 558 22,900 -1,020 Descending Atlanta Center
01:21PM 33.7642 -82.3672 82° East 480 552 21,000 -2,280 Descending Atlanta Center
01:23PM 33.7922 -82.1128 86° East 440 506 16,700 -2,400 Descending Jacksonville Center
01:24PM 33.7997 -81.9728 88° East 427 491 14,500 -1,800 Descending Jacksonville Center
01:25PM 33.8047 -81.8303 84° East 422 486 13,100 -900 Descending Jacksonville Center
01:26PM 33.8161 -81.7003 80° East 409 471 12,800 -780 Descending Jacksonville Center
01:27PM 33.8339 -81.5800 80° East 387 445 11,600 -1,080 Descending Jacksonville Center
01:28PM 33.8511 -81.4622 84° East 366 421 10,700 -1,140 Descending Jacksonville Center
01:29PM 33.8606 -81.3569 86° East 341 392 9,400 -1,500 Descending Jacksonville Center
01:30PM 33.8656 -81.2594 130° Southeast 308 354 7,700 -2,100 Descending Jacksonville Center
01:32PM 33.8103 -81.1803 336° Northwest 126 145 3,100 -1,800 Descending Jacksonville Center
01:33PM 33.8564 -81.2044 336° Northwest 55 63 2,300 -840 Descending Jacksonville Center